Terminal Aerodrome Forecast
Issued by NWS

Home | Current Version | Previous Version | Text Only | Print | Product List | Glossary On
Versions: 1 2 3 4 5 6 7 8 9 10 11 12 13 14 15 16 17
000
FTUS46 KSEW 261100 RRA
TAFBFI
TAF
KBFI 261135Z 2612/2712 11004KT P6SM OVC010
      TEMPO 2613/2617 OVC004
     FM261700 14003KT P6SM OVC010
     FM262000 14003KT P6SM OVC018
     FM262200 15003KT P6SM SCT022 BKN035 OVC070
     FM270600 15005KT P6SM OVC015=

USA.gov is the U.S. government's official web portal to all federal, state and local government web resources and services.